Time;durP1;ratioP1;P1;durP2;ratioP2;P2;SDS_P1;SDS_P2;PMS_P1;PMS_P2;Temp;Humidity;BMP_temperature;BMP_pressure;BME280_temperature;BME280_humidity;BME280_pressure;Samples;Min_cycle;Max_cycle;Signal;HPM_P1;HPM_P2
2023/03/22 00:00:14;;;;;;;2.03;1.93;;;;;;;;;;4967947;28;20587;-68
2023/03/22 00:02:40;;;;;;;2.10;2.00;;;;;;;;;;4971146;28;20190;-66
2023/03/22 00:05:06;;;;;;;2.10;2.00;;;;;;;;;;4968854;28;20186;-67
2023/03/22 00:07:32;;;;;;;1.10;1.10;;;;;;;;;;4969516;28;20187;-66
2023/03/22 00:09:58;;;;;;;2.47;2.37;;;;;;;;;;4974168;28;20311;-68
2023/03/22 00:12:24;;;;;;;1.33;1.33;;;;;;;;;;4973512;28;20178;-67
2023/03/22 00:14:51;;;;;;;1.57;1.57;;;;;;;;;;4969400;28;20602;-67
2023/03/22 00:17:17;;;;;;;1.50;1.50;;;;;;;;;;4975694;28;20257;-68
2023/03/22 00:19:43;;;;;;;1.50;1.50;;;;;;;;;;4954531;28;20842;-66
2023/03/22 00:22:10;;;;;;;1.60;1.60;;;;;;;;;;4962676;28;20278;-64
2023/03/22 00:24:36;;;;;;;2.80;2.70;;;;;;;;;;4969339;28;20221;-67
2023/03/22 00:27:02;;;;;;;5.23;5.03;;;;;;;;;;4965076;28;20183;-66
2023/03/22 00:29:28;;;;;;;1.20;1.20;;;;;;;;;;4969481;28;20194;-67
2023/03/22 00:31:55;;;;;;;1.20;1.20;;;;;;;;;;4966383;28;20699;-67
2023/03/22 00:34:21;;;;;;;1.20;1.20;;;;;;;;;;4963416;28;20191;-67
2023/03/22 00:36:47;;;;;;;1.20;1.20;;;;;;;;;;4964662;28;20198;-67
2023/03/22 00:39:13;;;;;;;1.10;1.10;;;;;;;;;;4966029;28;20257;-68
2023/03/22 00:41:39;;;;;;;1.10;1.10;;;;;;;;;;4966712;28;20635;-67
2023/03/22 00:44:05;;;;;;;1.33;1.33;;;;;;;;;;4971271;28;20174;-66
2023/03/22 00:46:31;;;;;;;1.20;1.20;;;;;;;;;;4960773;28;20193;-67
2023/03/22 00:48:57;;;;;;;1.30;1.30;;;;;;;;;;4968591;28;20193;-66
2023/03/22 00:51:23;;;;;;;1.20;1.20;;;;;;;;;;4976247;28;20194;-67
2023/03/22 00:53:49;;;;;;;1.00;1.00;;;;;;;;;;4966662;28;20650;-67
2023/03/22 00:56:15;;;;;;;1.40;1.40;;;;;;;;;;4981778;28;20186;-66
2023/03/22 00:58:42;;;;;;;1.70;1.67;;;;;;;;;;4974691;28;20197;-66
2023/03/22 01:01:07;;;;;;;2.20;2.10;;;;;;;;;;4969424;28;20637;-67
2023/03/22 01:03:33;;;;;;;1.60;1.60;;;;;;;;;;4973648;28;20220;-67
2023/03/22 01:05:59;;;;;;;1.70;1.70;;;;;;;;;;4974995;28;20197;-67
2023/03/22 01:08:32;;;;;;;1.60;1.60;;;;;;;;;;4975428;28;20554;-67
2023/03/22 01:10:58;;;;;;;1.70;1.70;;;;;;;;;;4973266;28;20659;-67
2023/03/22 01:13:24;;;;;;;1.80;1.70;;;;;;;;;;4969618;28;20268;-66
2023/03/22 01:15:50;;;;;;;2.40;2.30;;;;;;;;;;4972447;28;20197;-66
2023/03/22 01:18:16;;;;;;;1.60;1.60;;;;;;;;;;4975459;28;20198;-67
2023/03/22 01:20:42;;;;;;;1.50;1.50;;;;;;;;;;4964893;28;20687;-67
2023/03/22 01:23:08;;;;;;;1.77;1.70;;;;;;;;;;4971287;28;20183;-66
2023/03/22 01:25:34;;;;;;;1.60;1.60;;;;;;;;;;4971835;28;20222;-66
2023/03/22 01:28:01;;;;;;;1.60;1.60;;;;;;;;;;4968730;28;20188;-67
2023/03/22 01:30:27;;;;;;;1.40;1.40;;;;;;;;;;4971953;28;20182;-66
2023/03/22 01:32:53;;;;;;;1.20;1.20;;;;;;;;;;4970992;28;20190;-67
2023/03/22 01:35:19;;;;;;;1.20;1.20;;;;;;;;;;4971119;28;20268;-67
2023/03/22 01:37:45;;;;;;;1.20;1.20;;;;;;;;;;4977097;28;20229;-67
2023/03/22 01:40:11;;;;;;;1.20;1.20;;;;;;;;;;4972616;28;20221;-66
2023/03/22 01:42:37;;;;;;;1.30;1.30;;;;;;;;;;4976327;28;20703;-67
2023/03/22 01:45:17;;;;;;;1.50;1.50;;;;;;;;;;4973294;28;20337;-65
2023/03/22 01:47:45;;;;;;;1.50;1.50;;;;;;;;;;4973047;28;20199;-67
2023/03/22 01:50:11;;;;;;;1.30;1.30;;;;;;;;;;4964481;28;20253;-67
2023/03/22 01:52:37;;;;;;;1.20;1.20;;;;;;;;;;4980342;28;20199;-67
2023/03/22 01:55:03;;;;;;;1.30;1.30;;;;;;;;;;4954914;28;20249;-67
2023/03/22 01:57:32;;;;;;;1.10;1.10;;;;;;;;;;4974340;28;20583;-65
2023/03/22 01:59:58;;;;;;;1.10;1.10;;;;;;;;;;4978556;28;20202;-67
2023/03/22 02:02:24;;;;;;;1.20;1.20;;;;;;;;;;4967436;28;20194;-72
2023/03/22 02:04:56;;;;;;;1.40;1.40;;;;;;;;;;4978678;28;20664;-72
2023/03/22 02:07:25;;;;;;;1.50;1.50;;;;;;;;;;4970923;28;20179;-72
2023/03/22 02:09:52;;;;;;;2.70;2.60;;;;;;;;;;4972394;28;20202;-71
2023/03/22 02:12:23;;;;;;;1.90;1.80;;;;;;;;;;4974067;28;20218;-71
2023/03/22 02:15:04;;;;;;;2.37;2.27;;;;;;;;;;4972796;28;20198;-71
2023/03/22 02:18:00;;;;;;;1.63;1.63;;;;;;;;;;4971335;28;20198;-71
2023/03/22 02:20:37;;;;;;;3.30;3.20;;;;;;;;;;4960646;28;20238;-72
2023/03/22 02:23:22;;;;;;;2.60;2.50;;;;;;;;;;4962009;28;20245;-71
2023/03/22 02:26:06;;;;;;;2.57;2.47;;;;;;;;;;4975343;28;20187;-72
2023/03/22 02:28:51;;;;;;;1.50;1.50;;;;;;;;;;4971025;28;20214;-71
2023/03/22 02:31:17;;;;;;;1.60;1.60;;;;;;;;;;4971641;28;20245;-72
2023/03/22 02:33:43;;;;;;;1.43;1.43;;;;;;;;;;4967379;28;20217;-72
2023/03/22 02:36:18;;;;;;;1.10;1.10;;;;;;;;;;4976712;28;20187;-72
2023/03/22 02:38:51;;;;;;;2.10;2.00;;;;;;;;;;4976893;28;20238;-72
2023/03/22 02:41:17;;;;;;;2.20;2.10;;;;;;;;;;4969012;28;20301;-72
2023/03/22 02:44:02;;;;;;;2.27;2.17;;;;;;;;;;4970157;28;20194;-72
2023/03/22 02:46:35;;;;;;;1.30;1.30;;;;;;;;;;4967579;28;20205;-72
2023/03/22 02:49:11;;;;;;;1.20;1.20;;;;;;;;;;4961310;28;20191;-71
2023/03/22 02:51:40;;;;;;;1.33;1.33;;;;;;;;;;4967570;28;20197;-70
2023/03/22 02:54:08;;;;;;;1.30;1.30;;;;;;;;;;4957985;28;20550;-72
2023/03/22 02:56:38;;;;;;;1.33;1.33;;;;;;;;;;4976207;28;20217;-72
2023/03/22 02:59:05;;;;;;;1.20;1.20;;;;;;;;;;4976579;28;20187;-72
2023/03/22 03:01:33;;;;;;;1.30;1.30;;;;;;;;;;4971988;28;20226;-71
2023/03/22 03:04:00;;;;;;;1.20;1.20;;;;;;;;;;4973730;28;20198;-71
2023/03/22 03:06:27;;;;;;;1.20;1.20;;;;;;;;;;4971661;28;20216;-71
2023/03/22 03:08:56;;;;;;;1.00;1.00;;;;;;;;;;4976209;28;20183;-72
2023/03/22 03:11:22;;;;;;;1.20;1.20;;;;;;;;;;4978841;28;20195;-69
2023/03/22 03:13:48;;;;;;;1.20;1.20;;;;;;;;;;4976760;28;20201;-71
2023/03/22 03:16:16;;;;;;;1.10;1.10;;;;;;;;;;4975346;28;20692;-71
2023/03/22 03:18:56;;;;;;;1.00;1.00;;;;;;;;;;4973270;28;20201;-71
2023/03/22 03:21:24;;;;;;;1.00;1.00;;;;;;;;;;4955808;28;20210;-72
2023/03/22 03:24:06;;;;;;;1.07;1.07;;;;;;;;;;4963687;28;20242;-72
2023/03/22 03:26:35;;;;;;;1.60;1.60;;;;;;;;;;4973261;28;20230;-71
2023/03/22 03:29:05;;;;;;;1.90;1.80;;;;;;;;;;4958306;28;20186;-72
2023/03/22 03:31:36;;;;;;;2.10;2.00;;;;;;;;;;4973544;28;21075;-72
2023/03/22 03:34:20;;;;;;;1.80;1.70;;;;;;;;;;4972582;28;20199;-72
2023/03/22 03:36:49;;;;;;;1.90;1.80;;;;;;;;;;4968293;28;20195;-72
2023/03/22 03:39:15;;;;;;;1.80;1.70;;;;;;;;;;4971573;28;20194;-71
2023/03/22 03:41:41;;;;;;;1.90;1.80;;;;;;;;;;4955455;28;20236;-72
2023/03/22 03:44:07;;;;;;;1.80;1.70;;;;;;;;;;4970003;28;20745;-71
2023/03/22 03:46:33;;;;;;;1.50;1.50;;;;;;;;;;4970512;28;20621;-72
2023/03/22 03:48:59;;;;;;;1.60;1.60;;;;;;;;;;4973813;28;20726;-71
2023/03/22 03:51:26;;;;;;;1.60;1.60;;;;;;;;;;4974149;28;20204;-72
2023/03/22 03:53:52;;;;;;;1.40;1.40;;;;;;;;;;4963351;28;20290;-73
2023/03/22 03:56:18;;;;;;;1.40;1.40;;;;;;;;;;4958443;28;20230;-71
2023/03/22 03:58:44;;;;;;;1.40;1.40;;;;;;;;;;4974266;28;20202;-71
2023/03/22 04:01:09;;;;;;;1.50;1.50;;;;;;;;;;4972667;28;20847;-72
2023/03/22 04:03:36;;;;;;;1.20;1.20;;;;;;;;;;4967443;28;20553;-71
2023/03/22 04:06:02;;;;;;;1.10;1.10;;;;;;;;;;4967856;28;20253;-72
2023/03/22 04:08:28;;;;;;;1.10;1.10;;;;;;;;;;4973128;28;20503;-72
2023/03/22 04:10:54;;;;;;;1.20;1.20;;;;;;;;;;4970758;28;20205;-72
2023/03/22 04:13:20;;;;;;;1.17;1.17;;;;;;;;;;4971174;28;20226;-71
2023/03/22 04:15:46;;;;;;;1.17;1.17;;;;;;;;;;4971204;28;20187;-72
2023/03/22 04:18:12;;;;;;;1.10;1.10;;;;;;;;;;4970680;28;20220;-72
2023/03/22 04:20:40;;;;;;;0.90;0.90;;;;;;;;;;4974097;28;20310;-72
2023/03/22 04:23:09;;;;;;;1.10;1.10;;;;;;;;;;4977708;28;20199;-70
2023/03/22 04:25:36;;;;;;;1.00;1.00;;;;;;;;;;4969174;28;20214;-71
2023/03/22 04:28:03;;;;;;;1.03;1.03;;;;;;;;;;4967307;28;20205;-71
2023/03/22 04:30:29;;;;;;;1.00;1.00;;;;;;;;;;4970314;28;20190;-71
2023/03/22 04:32:55;;;;;;;1.00;1.00;;;;;;;;;;4972418;28;20195;-72
2023/03/22 04:35:21;;;;;;;1.10;1.10;;;;;;;;;;4973539;28;20198;-71
2023/03/22 04:37:47;;;;;;;1.10;1.10;;;;;;;;;;4974415;28;20230;-71
2023/03/22 04:40:19;;;;;;;1.10;1.10;;;;;;;;;;4966400;28;20214;-71
2023/03/22 04:42:45;;;;;;;1.20;1.20;;;;;;;;;;4973191;28;20182;-71
2023/03/22 04:45:11;;;;;;;1.10;1.10;;;;;;;;;;4971469;28;20191;-72
2023/03/22 04:47:37;;;;;;;1.20;1.20;;;;;;;;;;4973580;28;20194;-72
2023/03/22 04:50:03;;;;;;;1.10;1.10;;;;;;;;;;4975879;28;20198;-72
2023/03/22 04:52:29;;;;;;;1.20;1.20;;;;;;;;;;4972020;28;20191;-72
2023/03/22 04:54:55;;;;;;;1.00;1.00;;;;;;;;;;4973425;28;20310;-71
2023/03/22 04:57:21;;;;;;;1.00;1.00;;;;;;;;;;4972936;28;20297;-71
2023/03/22 04:59:47;;;;;;;1.00;1.00;;;;;;;;;;4969074;28;20211;-71
2023/03/22 05:02:13;;;;;;;0.97;0.97;;;;;;;;;;4968178;28;20199;-72
2023/03/22 05:04:39;;;;;;;1.00;1.00;;;;;;;;;;4973827;28;20728;-70
2023/03/22 05:07:05;;;;;;;1.00;1.00;;;;;;;;;;4969989;28;20186;-71
2023/03/22 05:09:32;;;;;;;1.00;1.00;;;;;;;;;;4972006;28;20549;-71
2023/03/22 05:11:58;;;;;;;1.10;1.10;;;;;;;;;;4979620;28;20187;-72
2023/03/22 05:14:24;;;;;;;1.00;1.00;;;;;;;;;;4977717;28;20233;-72
2023/03/22 05:16:50;;;;;;;1.03;1.03;;;;;;;;;;4969823;28;20222;-70
2023/03/22 05:19:16;;;;;;;0.90;0.90;;;;;;;;;;4977519;28;20202;-72
2023/03/22 05:21:42;;;;;;;1.00;1.00;;;;;;;;;;4970738;28;20747;-71
2023/03/22 05:24:09;;;;;;;0.90;0.90;;;;;;;;;;4968247;28;20318;-72
2023/03/22 05:26:36;;;;;;;1.00;1.00;;;;;;;;;;4971755;28;20639;-71
2023/03/22 05:29:02;;;;;;;1.00;1.00;;;;;;;;;;4975301;28;20266;-72
2023/03/22 05:31:28;;;;;;;1.00;1.00;;;;;;;;;;4971287;28;20208;-72
2023/03/22 05:33:54;;;;;;;1.10;1.10;;;;;;;;;;4962400;28;20206;-72
2023/03/22 05:36:21;;;;;;;1.10;1.10;;;;;;;;;;4971081;28;20611;-71
2023/03/22 05:38:47;;;;;;;0.90;0.90;;;;;;;;;;4970281;28;20244;-71
2023/03/22 05:41:13;;;;;;;0.80;0.80;;;;;;;;;;4966804;28;20228;-72
2023/03/22 05:43:39;;;;;;;1.03;1.03;;;;;;;;;;4972021;28;20670;-70
2023/03/22 05:46:08;;;;;;;1.00;1.00;;;;;;;;;;4968540;28;21557;-71
2023/03/22 05:48:35;;;;;;;0.90;0.90;;;;;;;;;;4963288;28;20276;-71
2023/03/22 05:51:02;;;;;;;1.00;1.00;;;;;;;;;;4967945;28;20187;-71
2023/03/22 05:53:28;;;;;;;1.00;1.00;;;;;;;;;;4973533;28;20202;-69
2023/03/22 05:55:59;;;;;;;1.00;1.00;;;;;;;;;;4976834;28;20198;-74
2023/03/22 05:58:27;;;;;;;1.00;1.00;;;;;;;;;;4978097;28;20190;-70
2023/03/22 06:00:54;;;;;;;0.90;0.90;;;;;;;;;;4967527;28;20250;-70
2023/03/22 06:03:20;;;;;;;1.00;1.00;;;;;;;;;;4976508;28;20603;-68
2023/03/22 06:05:49;;;;;;;0.90;0.90;;;;;;;;;;4970843;28;20190;-69
2023/03/22 06:08:15;;;;;;;0.90;0.90;;;;;;;;;;4973163;28;20194;-70
2023/03/22 06:10:41;;;;;;;1.00;1.00;;;;;;;;;;4961164;28;20194;-71
2023/03/22 06:13:07;;;;;;;0.90;0.90;;;;;;;;;;4964134;28;20612;-70
2023/03/22 06:15:33;;;;;;;1.00;1.00;;;;;;;;;;4946783;28;20238;-66
2023/03/22 06:17:59;;;;;;;1.10;1.10;;;;;;;;;;4972314;28;20198;-69
2023/03/22 06:20:25;;;;;;;0.97;0.97;;;;;;;;;;4970578;28;20213;-68
2023/03/22 06:22:51;;;;;;;1.00;1.00;;;;;;;;;;4969153;28;20195;-69
2023/03/22 06:25:17;;;;;;;1.00;1.00;;;;;;;;;;4974497;28;20587;-69
2023/03/22 06:27:43;;;;;;;0.80;0.80;;;;;;;;;;4976150;28;20303;-70
2023/03/22 06:30:09;;;;;;;1.00;1.00;;;;;;;;;;4972490;28;20198;-70
2023/03/22 06:32:35;;;;;;;0.80;0.80;;;;;;;;;;4973642;28;20277;-70
2023/03/22 06:35:01;;;;;;;1.00;1.00;;;;;;;;;;4970456;28;20328;-72
2023/03/22 06:37:27;;;;;;;0.90;0.90;;;;;;;;;;4983094;28;20313;-72
2023/03/22 06:39:53;;;;;;;1.00;1.00;;;;;;;;;;4980183;28;20219;-72
2023/03/22 06:42:19;;;;;;;0.80;0.80;;;;;;;;;;4980292;28;20191;-72
2023/03/22 06:44:45;;;;;;;1.00;1.00;;;;;;;;;;4980469;28;20194;-72
2023/03/22 06:47:11;;;;;;;0.90;0.90;;;;;;;;;;4978307;28;20267;-71
2023/03/22 06:49:37;;;;;;;0.80;0.80;;;;;;;;;;4979405;28;20539;-71
2023/03/22 06:52:03;;;;;;;0.90;0.90;;;;;;;;;;4979262;28;21629;-72
2023/03/22 06:54:29;;;;;;;1.00;1.00;;;;;;;;;;4976233;28;20285;-73
2023/03/22 06:56:55;;;;;;;0.93;0.93;;;;;;;;;;4976263;28;20641;-72
2023/03/22 06:59:21;;;;;;;0.90;0.90;;;;;;;;;;4976797;28;20282;-72
2023/03/22 07:01:47;;;;;;;1.00;1.00;;;;;;;;;;4979528;28;20278;-71
2023/03/22 07:04:13;;;;;;;0.93;0.93;;;;;;;;;;4978630;28;20215;-71
2023/03/22 07:06:39;;;;;;;0.90;0.90;;;;;;;;;;4980855;28;20812;-71
2023/03/22 07:09:05;;;;;;;0.90;0.90;;;;;;;;;;4981387;28;20190;-72
2023/03/22 07:11:31;;;;;;;1.00;1.00;;;;;;;;;;4981160;28;20713;-72
2023/03/22 07:13:57;;;;;;;0.90;0.90;;;;;;;;;;4980014;28;20742;-72
2023/03/22 07:16:23;;;;;;;1.00;1.00;;;;;;;;;;4980236;28;20183;-72
2023/03/22 07:18:49;;;;;;;0.90;0.90;;;;;;;;;;4976792;28;20198;-73
2023/03/22 07:21:15;;;;;;;0.90;0.90;;;;;;;;;;4978957;28;20210;-73
2023/03/22 07:23:41;;;;;;;1.00;1.00;;;;;;;;;;4979177;28;20686;-72
2023/03/22 07:26:07;;;;;;;0.80;0.80;;;;;;;;;;4975745;28;20636;-72
2023/03/22 07:28:32;;;;;;;0.90;0.90;;;;;;;;;;4980265;28;20604;-72
2023/03/22 07:31:02;;;;;;;0.90;0.90;;;;;;;;;;4979725;28;20273;-72
2023/03/22 07:33:27;;;;;;;1.10;1.10;;;;;;;;;;4976667;28;20198;-72
2023/03/22 07:35:54;;;;;;;1.20;1.20;;;;;;;;;;4977117;28;20729;-72
2023/03/22 07:38:19;;;;;;;1.10;1.10;;;;;;;;;;4977869;28;20234;-72
2023/03/22 07:40:45;;;;;;;1.00;1.00;;;;;;;;;;4980181;28;20245;-72
2023/03/22 07:43:12;;;;;;;1.30;1.30;;;;;;;;;;4980192;28;20182;-72
2023/03/22 07:45:39;;;;;;;1.30;1.30;;;;;;;;;;4977959;28;20278;-72
2023/03/22 07:48:05;;;;;;;1.10;1.10;;;;;;;;;;4981833;28;20285;-72
2023/03/22 07:50:31;;;;;;;1.40;1.40;;;;;;;;;;4977572;28;20225;-72
2023/03/22 07:52:57;;;;;;;1.30;1.30;;;;;;;;;;4979738;28;20249;-72
2023/03/22 07:55:23;;;;;;;1.30;1.30;;;;;;;;;;4979088;28;20647;-73
2023/03/22 07:57:50;;;;;;;1.10;1.10;;;;;;;;;;4980625;28;20201;-72
2023/03/22 08:00:16;;;;;;;1.67;1.67;;;;;;;;;;4981716;28;20221;-72
2023/03/22 08:02:44;;;;;;;1.50;1.50;;;;;;;;;;4976634;28;20224;-72
2023/03/22 08:05:10;;;;;;;1.10;1.10;;;;;;;;;;4982361;28;20191;-73
2023/03/22 08:07:36;;;;;;;0.90;0.90;;;;;;;;;;4977622;28;20198;-72
2023/03/22 08:10:02;;;;;;;1.50;1.50;;;;;;;;;;4976297;28;20191;-72
2023/03/22 08:12:28;;;;;;;2.50;2.40;;;;;;;;;;4981604;28;20194;-73
2023/03/22 08:14:54;;;;;;;1.20;1.20;;;;;;;;;;4980482;28;20592;-72
2023/03/22 08:17:20;;;;;;;1.30;1.30;;;;;;;;;;4979217;28;20186;-72
2023/03/22 08:19:46;;;;;;;1.33;1.33;;;;;;;;;;4976729;28;20215;-72
2023/03/22 08:22:12;;;;;;;1.10;1.10;;;;;;;;;;4977434;28;20218;-71
2023/03/22 08:24:38;;;;;;;1.40;1.40;;;;;;;;;;4979751;28;20240;-71
2023/03/22 08:27:04;;;;;;;0.80;0.80;;;;;;;;;;4979546;28;20187;-72
2023/03/22 08:29:30;;;;;;;2.60;2.50;;;;;;;;;;4976320;28;20671;-72
2023/03/22 08:32:00;;;;;;;1.63;1.63;;;;;;;;;;4977388;28;20723;-73
2023/03/22 08:34:26;;;;;;;1.00;1.00;;;;;;;;;;4980460;28;20183;-72
2023/03/22 08:36:52;;;;;;;1.00;1.00;;;;;;;;;;4982510;28;20175;-71
2023/03/22 08:39:18;;;;;;;1.20;1.20;;;;;;;;;;4980872;28;20274;-71
2023/03/22 08:41:44;;;;;;;1.10;1.10;;;;;;;;;;4977800;28;20632;-72
2023/03/22 08:44:10;;;;;;;1.40;1.40;;;;;;;;;;4979819;28;20258;-73
2023/03/22 08:46:36;;;;;;;1.00;1.00;;;;;;;;;;4981074;28;20285;-72
2023/03/22 08:49:02;;;;;;;1.00;1.00;;;;;;;;;;4982161;28;20238;-72
2023/03/22 08:51:30;;;;;;;0.90;0.90;;;;;;;;;;4981908;28;20210;-71
2023/03/22 08:53:58;;;;;;;1.10;1.10;;;;;;;;;;4972535;28;20190;-72
2023/03/22 08:56:26;;;;;;;1.30;1.30;;;;;;;;;;4981434;28;20205;-72
2023/03/22 08:58:52;;;;;;;1.20;1.20;;;;;;;;;;4981615;28;20283;-72
2023/03/22 09:01:19;;;;;;;1.40;1.40;;;;;;;;;;4979710;28;20213;-72
2023/03/22 09:03:45;;;;;;;1.10;1.10;;;;;;;;;;4971524;28;20191;-72
2023/03/22 09:06:11;;;;;;;1.50;1.50;;;;;;;;;;4973890;28;20464;-72
2023/03/22 09:08:37;;;;;;;1.30;1.30;;;;;;;;;;4982732;28;20190;-72
2023/03/22 09:11:03;;;;;;;1.13;1.13;;;;;;;;;;4984176;28;20237;-72
2023/03/22 09:13:29;;;;;;;1.30;1.30;;;;;;;;;;4978652;28;21178;-71
2023/03/22 09:15:55;;;;;;;1.33;1.33;;;;;;;;;;4979870;28;20191;-72
2023/03/22 09:18:23;;;;;;;1.50;1.50;;;;;;;;;;4982730;28;20186;-72
2023/03/22 09:20:49;;;;;;;1.60;1.60;;;;;;;;;;4984050;28;20210;-71
2023/03/22 09:23:15;;;;;;;1.53;1.53;;;;;;;;;;4982597;28;20190;-72
2023/03/22 09:25:44;;;;;;;1.30;1.30;;;;;;;;;;4972361;28;20183;-71
2023/03/22 09:28:10;;;;;;;1.07;1.07;;;;;;;;;;4981515;28;20186;-73
2023/03/22 09:30:36;;;;;;;1.03;1.03;;;;;;;;;;4982080;28;21089;-73
2023/03/22 09:33:02;;;;;;;0.90;0.90;;;;;;;;;;4979668;28;20676;-71
2023/03/22 09:35:28;;;;;;;0.77;0.77;;;;;;;;;;4982954;28;20198;-71
2023/03/22 09:37:55;;;;;;;0.80;0.80;;;;;;;;;;4981815;28;20835;-73
2023/03/22 09:40:25;;;;;;;0.80;0.80;;;;;;;;;;4982662;28;20314;-72
2023/03/22 09:42:51;;;;;;;1.00;1.00;;;;;;;;;;4963409;28;20183;-72
2023/03/22 09:45:18;;;;;;;0.90;0.90;;;;;;;;;;4978016;28;20189;-71
2023/03/22 09:47:45;;;;;;;1.00;1.00;;;;;;;;;;4978124;28;20222;-72
2023/03/22 09:50:13;;;;;;;1.50;1.50;;;;;;;;;;4979461;28;20278;-71
2023/03/22 09:52:39;;;;;;;1.30;1.30;;;;;;;;;;4981683;28;20202;-72
2023/03/22 09:55:06;;;;;;;1.30;1.30;;;;;;;;;;4979855;28;20273;-75
2023/03/22 09:57:33;;;;;;;1.30;1.30;;;;;;;;;;4975236;28;20528;-72
2023/03/22 10:00:13;;;;;;;1.27;1.27;;;;;;;;;;4977693;28;20217;-72
2023/03/22 10:02:39;;;;;;;1.40;1.40;;;;;;;;;;4982880;28;20530;-72
2023/03/22 10:05:24;;;;;;;1.70;1.70;;;;;;;;;;4980340;28;20183;-72
2023/03/22 10:08:10;;;;;;;2.60;2.50;;;;;;;;;;4980121;28;20271;-72
2023/03/22 10:10:36;;;;;;;3.37;3.27;;;;;;;;;;4943551;28;20209;-71
2023/03/22 10:13:06;;;;;;;2.70;2.60;;;;;;;;;;4981476;28;21822;-72
2023/03/22 10:15:36;;;;;;;1.80;1.70;;;;;;;;;;4965841;28;20278;-71
2023/03/22 10:18:03;;;;;;;1.20;1.20;;;;;;;;;;4972343;28;20191;-72
2023/03/22 10:20:38;;;;;;;2.20;2.10;;;;;;;;;;4981589;28;20575;-73
2023/03/22 10:23:05;;;;;;;2.30;2.20;;;;;;;;;;4984350;28;20209;-73
2023/03/22 10:25:33;;;;;;;2.00;1.90;;;;;;;;;;4963820;28;20734;-71
2023/03/22 10:27:59;;;;;;;2.08;1.98;;;;;;;;;;4977811;28;20215;-72
2023/03/22 10:30:26;;;;;;;2.25;2.15;;;;;;;;;;4978467;28;20577;-72
2023/03/22 10:32:55;;;;;;;2.95;2.85;;;;;;;;;;4980989;28;20229;-73
2023/03/22 10:35:21;;;;;;;2.13;2.03;;;;;;;;;;4977189;28;20200;-72
2023/03/22 10:37:47;;;;;;;2.10;2.00;;;;;;;;;;4978543;28;20698;-72
2023/03/22 10:40:16;;;;;;;2.30;2.20;;;;;;;;;;4974165;28;20203;-72
2023/03/22 10:42:41;;;;;;;1.50;1.50;;;;;;;;;;4979868;28;20195;-72
2023/03/22 10:45:08;;;;;;;1.90;1.80;;;;;;;;;;4981648;28;20193;-73
2023/03/22 10:47:35;;;;;;;1.88;1.77;;;;;;;;;;4967480;28;20226;-72
2023/03/22 10:50:02;;;;;;;2.00;1.90;;;;;;;;;;4981030;28;20285;-72
2023/03/22 10:52:35;;;;;;;2.00;1.90;;;;;;;;;;4976877;28;20924;-72
2023/03/22 10:55:01;;;;;;;5.35;5.13;;;;;;;;;;4979389;28;20330;-72
2023/03/22 10:57:27;;;;;;;1.92;1.83;;;;;;;;;;4967476;28;20257;-72
2023/03/22 10:59:56;;;;;;;5.70;5.40;;;;;;;;;;4983125;28;20220;-72
2023/03/22 11:02:23;;;;;;;3.28;3.17;;;;;;;;;;4978466;28;20191;-72
2023/03/22 11:04:53;;;;;;;1.30;1.30;;;;;;;;;;4976881;28;20201;-71
2023/03/22 11:07:26;;;;;;;2.03;1.92;;;;;;;;;;4981562;28;20650;-73
2023/03/22 11:09:59;;;;;;;2.37;2.27;;;;;;;;;;4984128;28;20560;-72
2023/03/22 11:12:25;;;;;;;0.90;0.90;;;;;;;;;;4977493;28;20196;-71
2023/03/22 11:14:51;;;;;;;0.90;0.90;;;;;;;;;;4976809;28;20187;-72
2023/03/22 11:17:20;;;;;;;1.30;1.30;;;;;;;;;;4977459;28;20198;-72
2023/03/22 11:20:00;;;;;;;1.30;1.30;;;;;;;;;;4974811;28;20183;-73
2023/03/22 11:22:26;;;;;;;1.90;1.80;;;;;;;;;;4975702;28;20178;-73
2023/03/22 11:24:52;;;;;;;1.90;1.80;;;;;;;;;;4981694;28;20662;-72
2023/03/22 11:27:20;;;;;;;1.70;1.70;;;;;;;;;;4976196;28;20702;-72
2023/03/22 11:29:49;;;;;;;1.30;1.30;;;;;;;;;;4977216;28;20186;-72
2023/03/22 11:32:38;;;;;;;2.10;2.00;;;;;;;;;;4978534;28;20183;-71
2023/03/22 11:35:12;;;;;;;2.00;1.90;;;;;;;;;;4968978;28;20210;-72
2023/03/22 11:37:45;;;;;;;1.80;1.70;;;;;;;;;;4971326;28;20231;-72
2023/03/22 11:40:15;;;;;;;2.00;1.90;;;;;;;;;;4979613;28;20233;-72
2023/03/22 11:42:41;;;;;;;2.00;1.90;;;;;;;;;;4976610;28;20248;-73
2023/03/22 11:45:07;;;;;;;1.90;1.80;;;;;;;;;;4979986;28;20182;-73
2023/03/22 11:47:34;;;;;;;2.10;2.00;;;;;;;;;;4979140;28;20175;-72
2023/03/22 11:50:00;;;;;;;2.20;2.10;;;;;;;;;;4976584;28;20269;-72
2023/03/22 11:52:26;;;;;;;1.73;1.70;;;;;;;;;;4976600;28;20206;-72
2023/03/22 11:54:53;;;;;;;2.20;2.10;;;;;;;;;;4975552;28;20252;-72
2023/03/22 11:57:29;;;;;;;2.10;2.00;;;;;;;;;;4962487;28;20546;-72
2023/03/22 11:59:57;;;;;;;2.10;2.00;;;;;;;;;;4978046;28;20214;-72
2023/03/22 12:02:43;;;;;;;2.17;2.07;;;;;;;;;;4976728;28;20267;-72
2023/03/22 12:05:15;;;;;;;1.73;1.70;;;;;;;;;;4976069;28;20343;-72
2023/03/22 12:07:40;;;;;;;2.10;2.00;;;;;;;;;;4976304;28;20191;-72
2023/03/22 12:10:10;;;;;;;2.10;2.00;;;;;;;;;;4976621;28;20574;-72
2023/03/22 12:12:38;;;;;;;2.67;2.57;;;;;;;;;;4976366;28;20198;-73
2023/03/22 12:15:30;;;;;;;1.90;1.80;;;;;;;;;;4974072;28;20277;-73
2023/03/22 12:17:56;;;;;;;2.20;2.10;;;;;;;;;;4954109;28;20663;-73
2023/03/22 12:20:31;;;;;;;2.00;1.90;;;;;;;;;;4979080;28;20206;-73
2023/03/22 12:22:57;;;;;;;2.27;2.17;;;;;;;;;;4978874;28;20239;-73
2023/03/22 12:25:24;;;;;;;2.00;1.90;;;;;;;;;;4977419;28;20194;-73
2023/03/22 12:27:53;;;;;;;2.13;2.03;;;;;;;;;;4963140;28;20186;-71
2023/03/22 12:30:25;;;;;;;2.00;1.90;;;;;;;;;;4975841;28;20644;-73
2023/03/22 12:33:09;;;;;;;2.40;2.30;;;;;;;;;;4957984;28;20202;-73
2023/03/22 12:35:36;;;;;;;2.30;2.20;;;;;;;;;;4978083;28;20750;-73
2023/03/22 12:38:22;;;;;;;2.60;2.50;;;;;;;;;;4980570;28;20229;-73
2023/03/22 12:40:48;;;;;;;2.10;2.00;;;;;;;;;;4979636;28;20224;-73
2023/03/22 12:43:14;;;;;;;2.00;1.90;;;;;;;;;;4976451;28;20261;-73
2023/03/22 12:45:42;;;;;;;2.30;2.20;;;;;;;;;;4980861;28;20190;-73
2023/03/22 12:48:12;;;;;;;2.20;2.10;;;;;;;;;;4979470;28;20261;-73
2023/03/22 12:50:42;;;;;;;2.00;1.90;;;;;;;;;;4962496;28;20198;-72
2023/03/22 12:53:10;;;;;;;2.00;1.90;;;;;;;;;;4981196;28;20191;-74
2023/03/22 12:55:37;;;;;;;2.80;2.70;;;;;;;;;;4975940;28;20199;-73
2023/03/22 12:58:06;;;;;;;3.00;2.90;;;;;;;;;;4978787;28;20241;-74
2023/03/22 13:00:33;;;;;;;2.50;2.40;;;;;;;;;;4964985;28;20305;-73
2023/03/22 13:03:07;;;;;;;1.90;1.80;;;;;;;;;;4979149;28;20649;-72
2023/03/22 13:05:33;;;;;;;3.10;3.00;;;;;;;;;;4977718;28;20179;-71
2023/03/22 13:08:02;;;;;;;3.20;3.10;;;;;;;;;;4970614;28;20578;-71
2023/03/22 13:10:28;;;;;;;2.80;2.70;;;;;;;;;;4980170;28;20198;-71
2023/03/22 13:13:03;;;;;;;2.90;2.80;;;;;;;;;;4979033;28;20277;-70
2023/03/22 13:15:33;;;;;;;2.90;2.80;;;;;;;;;;4976498;28;20194;-70
2023/03/22 13:17:59;;;;;;;2.53;2.43;;;;;;;;;;4978194;28;20277;-70
2023/03/22 13:20:26;;;;;;;2.40;2.30;;;;;;;;;;4981679;28;20297;-71
2023/03/22 13:22:52;;;;;;;2.50;2.40;;;;;;;;;;4972291;28;20647;-71
2023/03/22 13:25:18;;;;;;;2.90;2.80;;;;;;;;;;4974642;28;20174;-71
2023/03/22 13:27:44;;;;;;;2.90;2.80;;;;;;;;;;4980951;28;20197;-71
2023/03/22 13:30:22;;;;;;;2.30;2.20;;;;;;;;;;4975191;28;20193;-70
2023/03/22 13:32:53;;;;;;;2.33;2.23;;;;;;;;;;4971026;28;20178;-71
2023/03/22 13:35:20;;;;;;;2.80;2.70;;;;;;;;;;4969058;28;20182;-69
2023/03/22 13:37:48;;;;;;;2.70;2.60;;;;;;;;;;4980034;28;20222;-71
2023/03/22 13:40:16;;;;;;;3.20;3.10;;;;;;;;;;4981187;28;20211;-71
2023/03/22 13:42:42;;;;;;;1.60;1.60;;;;;;;;;;4983337;28;20191;-71
2023/03/22 13:45:08;;;;;;;1.90;1.80;;;;;;;;;;4977862;28;20610;-70
2023/03/22 13:47:35;;;;;;;2.00;1.90;;;;;;;;;;4978228;28;20194;-70
2023/03/22 13:50:03;;;;;;;1.90;1.80;;;;;;;;;;4973526;28;20583;-70
2023/03/22 13:52:42;;;;;;;2.33;2.23;;;;;;;;;;4977473;28;20273;-70
2023/03/22 13:55:27;;;;;;;3.87;3.67;;;;;;;;;;4976801;28;20564;-71
2023/03/22 13:57:59;;;;;;;1.10;1.10;;;;;;;;;;4984366;28;20245;-71
2023/03/22 14:00:31;;;;;;;2.40;2.30;;;;;;;;;;4982955;28;20213;-69
2023/03/22 14:03:11;;;;;;;2.23;2.13;;;;;;;;;;4982086;28;20191;-71
2023/03/22 14:05:37;;;;;;;1.70;1.70;;;;;;;;;;4982832;28;20194;-70
2023/03/22 14:08:03;;;;;;;1.90;1.80;;;;;;;;;;4969775;28;20186;-71
2023/03/22 14:10:45;;;;;;;1.60;1.60;;;;;;;;;;4982248;28;20880;-70
2023/03/22 14:13:30;;;;;;;1.50;1.50;;;;;;;;;;4980452;28;20180;-71
2023/03/22 14:15:56;;;;;;;1.80;1.70;;;;;;;;;;4982169;28;20549;-70
2023/03/22 14:18:24;;;;;;;1.60;1.60;;;;;;;;;;4981444;28;20658;-71
2023/03/22 14:20:51;;;;;;;1.50;1.50;;;;;;;;;;4979668;28;20227;-71
2023/03/22 14:23:20;;;;;;;1.50;1.50;;;;;;;;;;4978330;28;20257;-71
2023/03/22 14:25:46;;;;;;;1.57;1.57;;;;;;;;;;4971489;28;20681;-69
2023/03/22 14:28:21;;;;;;;1.50;1.50;;;;;;;;;;4983708;28;20191;-69
2023/03/22 14:30:47;;;;;;;1.90;1.80;;;;;;;;;;4980058;28;20193;-69
2023/03/22 14:33:18;;;;;;;1.87;1.77;;;;;;;;;;4957336;28;20198;-69
2023/03/22 14:35:46;;;;;;;1.90;1.80;;;;;;;;;;4956302;28;20728;-71
2023/03/22 14:38:16;;;;;;;2.10;2.00;;;;;;;;;;4978882;28;20249;-70
2023/03/22 14:40:42;;;;;;;1.80;1.70;;;;;;;;;;4964038;28;20256;-71
2023/03/22 14:43:14;;;;;;;1.60;1.60;;;;;;;;;;4976339;28;20581;-71
2023/03/22 14:45:40;;;;;;;1.87;1.77;;;;;;;;;;4980766;28;20257;-70
2023/03/22 14:48:26;;;;;;;1.90;1.80;;;;;;;;;;4980147;28;20191;-72